Time;durP1;ratioP1;P1;durP2;ratioP2;P2;SDS_P1;SDS_P2;PMS_P1;PMS_P2;Temp;Humidity;BMP_temperature;BMP_pressure;BME280_temperature;BME280_humidity;BME280_pressure;Samples;Min_cycle;Max_cycle;Signal;HPM_P1;HPM_P2
2023/03/03 00:00:36;;;;;;;;;39.00;32.75;;;;;;;;5048054;29;8809;-81
2023/03/03 00:03:26;;;;;;;;;42.25;42.25;;;;;;;;5034184;29;8863;-81
2023/03/03 00:05:57;;;;;;;;;75.67;60.33;;;;;;;;5030923;29;9522;-81
2023/03/03 00:08:28;;;;;;;;;89.00;70.00;;;;;;;;5047198;29;9608;-80
2023/03/03 00:11:18;;;;;;;;;81.25;66.75;;;;;;;;5046549;29;10222;-76
2023/03/03 00:13:50;;;;;;;;;74.33;61.67;;;;;;;;5031128;29;10385;-75
2023/03/03 00:16:23;;;;;;;;;73.67;58.67;;;;;;;;5031460;29;9895;-75
2023/03/03 00:18:55;;;;;;;;;66.25;54.25;;;;;;;;5013966;29;9943;-76
2023/03/03 00:21:28;;;;;;;;;68.75;51.00;;;;;;;;5013405;29;10047;-77
2023/03/03 00:24:09;;;;;;;;;82.25;67.50;;;;;;;;5015445;29;10267;-74
2023/03/03 00:26:45;;;;;;;;;83.00;63.50;;;;;;;;5030077;29;10388;-76
2023/03/03 00:29:35;;;;;;;;;57.33;46.67;;;;;;;;5030182;29;10124;-74
2023/03/03 00:32:19;;;;;;;;;57.00;48.33;;;;;;;;5015509;29;9614;-75
2023/03/03 00:34:52;;;;;;;;;59.67;50.00;;;;;;;;5005639;29;9336;-75
2023/03/03 00:37:31;;;;;;;;;60.00;51.67;;;;;;;;5026870;29;9526;-75
2023/03/03 00:40:05;;;;;;;;;61.00;52.67;;;;;;;;5026988;29;9219;-75
2023/03/03 00:42:36;;;;;;;;;61.67;50.67;;;;;;;;5000744;29;9747;-76
2023/03/03 00:45:37;;;;;;;;;49.67;46.00;;;;;;;;5030853;29;9151;-75
2023/03/03 00:48:29;;;;;;;;;42.67;35.67;;;;;;;;5022010;29;9002;-75
2023/03/03 00:51:21;;;;;;;;;45.50;36.75;;;;;;;;5032307;29;9353;-75
2023/03/03 00:53:53;;;;;;;;;35.25;30.00;;;;;;;;5040436;29;8813;-75
2023/03/03 00:56:25;;;;;;;;;45.75;43.75;;;;;;;;5045302;29;8834;-75
2023/03/03 00:58:56;;;;;;;;;57.33;49.33;;;;;;;;5030360;29;8830;-75
2023/03/03 01:01:45;;;;;;;;;47.33;44.33;;;;;;;;5045955;29;9333;-75
2023/03/03 01:04:16;;;;;;;;;44.67;41.00;;;;;;;;5030767;29;8896;-75
2023/03/03 01:06:48;;;;;;;;;56.67;51.33;;;;;;;;5030435;29;9002;-75
2023/03/03 01:09:20;;;;;;;;;62.33;49.67;;;;;;;;5045203;29;8822;-75
2023/03/03 01:12:11;;;;;;;;;70.67;50.67;;;;;;;;5045563;29;9258;-75
2023/03/03 01:14:44;;;;;;;;;77.33;62.33;;;;;;;;5046921;29;9088;-76
2023/03/03 01:17:15;;;;;;;;;81.00;64.33;;;;;;;;5046621;29;9727;-75
2023/03/03 01:19:46;;;;;;;;;61.33;25.33;;;;;;;;5014605;29;9701;-75
2023/03/03 01:22:17;;;;;;;;;91.00;69.00;;;;;;;;5043826;29;12105;-77
2023/03/03 01:24:48;;;;;;;;;72.00;52.33;;;;;;;;5049137;29;10105;-77
2023/03/03 01:27:19;;;;;;;;;79.00;60.67;;;;;;;;5048833;29;8935;-76
2023/03/03 01:29:50;;;;;;;;;81.00;65.00;;;;;;;;5064698;29;8825;-77
2023/03/03 01:32:21;;;;;;;;;91.33;67.67;;;;;;;;5033524;29;9561;-75
2023/03/03 01:34:53;;;;;;;;;84.00;63.00;;;;;;;;5048708;29;11577;-75
2023/03/03 01:37:24;;;;;;;;;82.33;61.00;;;;;;;;5048880;29;9385;-76
2023/03/03 01:39:55;;;;;;;;;71.33;56.67;;;;;;;;5048985;29;9620;-74
2023/03/03 01:42:28;;;;;;;;;88.25;72.00;;;;;;;;5065270;29;8850;-77
2023/03/03 01:45:14;;;;;;;;;72.00;56.67;;;;;;;;5048826;29;9977;-76
2023/03/03 01:48:12;;;;;;;;;69.33;57.00;;;;;;;;5063514;29;9562;-75
2023/03/03 01:51:10;;;;;;;;;64.33;54.00;;;;;;;;5045343;29;9564;-79
2023/03/03 01:53:43;;;;;;;;;63.00;51.25;;;;;;;;5006468;29;9333;-78
2023/03/03 01:56:14;;;;;;;;;60.50;51.50;;;;;;;;5029464;29;8802;-72
2023/03/03 01:59:06;;;;;;;;;59.50;51.00;;;;;;;;5046098;29;8814;-73
2023/03/03 02:01:37;;;;;;;;;52.00;48.00;;;;;;;;5044830;29;8830;-73
2023/03/03 02:04:08;;;;;;;;;44.50;41.25;;;;;;;;5029094;29;8794;-74
2023/03/03 02:07:00;;;;;;;;;44.50;42.50;;;;;;;;5056424;29;8823;-74
2023/03/03 02:10:05;;;;;;;;;46.25;44.75;;;;;;;;5065248;29;8940;-74
2023/03/03 02:12:56;;;;;;;;;47.50;45.00;;;;;;;;5064126;29;8828;-74
2023/03/03 02:15:31;;;;;;;;;47.25;43.75;;;;;;;;5064034;29;8992;-75
2023/03/03 02:18:11;;;;;;;;;34.75;32.25;;;;;;;;5048167;29;8832;-75
2023/03/03 02:20:42;;;;;;;;;50.00;45.25;;;;;;;;5046263;29;8840;-76
2023/03/03 02:23:21;;;;;;;;;39.00;33.67;;;;;;;;5056114;29;8838;-75
2023/03/03 02:25:56;;;;;;;;;37.50;36.25;;;;;;;;5013787;29;8941;-75
2023/03/03 02:28:30;;;;;;;;;29.75;27.25;;;;;;;;5045696;29;8818;-75
2023/03/03 02:31:22;;;;;;;;;22.50;19.75;;;;;;;;5043894;29;8941;-75
2023/03/03 02:33:54;;;;;;;;;32.00;28.50;;;;;;;;5037306;29;8828;-74
2023/03/03 02:36:26;;;;;;;;;37.75;33.50;;;;;;;;5028871;29;8889;-74
2023/03/03 02:39:06;;;;;;;;;35.25;35.25;;;;;;;;5029286;29;8860;-79
2023/03/03 02:41:46;;;;;;;;;33.25;33.25;;;;;;;;5017510;29;8853;-81
2023/03/03 02:44:20;;;;;;;;;24.25;24.25;;;;;;;;5025430;29;8843;-80
2023/03/03 02:46:52;;;;;;;;;117.75;94.75;;;;;;;;5028654;29;8818;-73
2023/03/03 02:49:26;;;;;;;;;46.75;39.25;;;;;;;;5042150;29;10943;-75
2023/03/03 02:51:58;;;;;;;;;40.50;40.50;;;;;;;;5028987;29;8790;-75
2023/03/03 02:54:30;;;;;;;;;39.25;38.00;;;;;;;;5029497;29;8829;-78
2023/03/03 02:57:01;;;;;;;;;37.00;34.75;;;;;;;;5013541;29;8842;-84
2023/03/03 02:59:32;;;;;;;;;51.25;47.50;;;;;;;;5007283;29;8839;-81
2023/03/03 03:02:10;;;;;;;;;41.75;40.25;;;;;;;;5001420;29;8868;-80
2023/03/03 03:04:42;;;;;;;;;38.25;38.25;;;;;;;;5032693;29;8838;-84
2023/03/03 03:07:15;;;;;;;;;51.50;46.25;;;;;;;;5001986;29;8898;-84
2023/03/03 03:09:46;;;;;;;;;50.75;43.75;;;;;;;;5043194;29;8810;-80
2023/03/03 03:12:19;;;;;;;;;52.50;47.25;;;;;;;;5024034;29;8838;-75
2023/03/03 03:14:52;;;;;;;;;49.75;45.25;;;;;;;;5023303;29;8813;-77
2023/03/03 03:17:24;;;;;;;;;62.00;44.50;;;;;;;;5028909;29;8820;-82
2023/03/03 03:19:57;;;;;;;;;33.50;32.00;;;;;;;;5030891;29;8786;-79
2023/03/03 03:22:28;;;;;;;;;49.25;46.75;;;;;;;;5047065;29;8814;-76
2023/03/03 03:24:59;;;;;;;;;71.25;54.25;;;;;;;;5016862;29;8790;-75
2023/03/03 03:27:30;;;;;;;;;45.00;41.00;;;;;;;;5016467;29;8834;-78
2023/03/03 03:30:01;;;;;;;;;46.67;45.33;;;;;;;;5016466;29;8815;-77
2023/03/03 03:32:34;;;;;;;;;50.50;45.00;;;;;;;;5016884;29;8802;-79
2023/03/03 03:35:05;;;;;;;;;36.25;34.75;;;;;;;;5032016;29;8820;-79
2023/03/03 03:37:36;;;;;;;;;30.25;28.00;;;;;;;;5031780;29;8799;-77
2023/03/03 03:40:08;;;;;;;;;21.50;21.25;;;;;;;;5032272;29;9578;-76
2023/03/03 03:42:40;;;;;;;;;19.75;19.75;;;;;;;;5048339;29;8814;-77
2023/03/03 03:45:14;;;;;;;;;24.75;21.75;;;;;;;;5031415;29;8811;-75
2023/03/03 03:48:03;;;;;;;;;32.75;29.25;;;;;;;;5045042;29;9573;-76
2023/03/03 03:50:35;;;;;;;;;21.50;21.50;;;;;;;;4997648;29;8781;-76
2023/03/03 03:53:08;;;;;;;;;42.50;38.50;;;;;;;;5031822;29;8878;-74
2023/03/03 03:55:39;;;;;;;;;47.25;44.25;;;;;;;;5031598;29;8865;-75
2023/03/03 03:58:15;;;;;;;;;63.00;52.00;;;;;;;;5019239;29;8829;-82
2023/03/03 04:00:51;;;;;;;;;63.50;54.00;;;;;;;;5036072;29;8868;-83
2023/03/03 04:03:25;;;;;;;;;82.00;63.00;;;;;;;;5033841;29;8843;-80
2023/03/03 04:05:58;;;;;;;;;53.75;47.50;;;;;;;;5016296;29;10133;-82
2023/03/03 04:08:31;;;;;;;;;26.75;26.50;;;;;;;;5031033;29;8946;-80
2023/03/03 04:11:04;;;;;;;;;23.75;22.75;;;;;;;;5029885;29;8802;-82
2023/03/03 04:13:37;;;;;;;;;38.25;36.75;;;;;;;;5032674;29;8831;-83
2023/03/03 04:16:12;;;;;;;;;43.00;40.50;;;;;;;;5016968;29;8875;-81
2023/03/03 04:18:46;;;;;;;;;35.00;34.00;;;;;;;;5011653;29;8810;-81
2023/03/03 04:21:20;;;;;;;;;39.50;38.00;;;;;;;;5044820;29;8806;-82
2023/03/03 04:23:54;;;;;;;;;46.75;44.50;;;;;;;;5061733;29;8859;-83
2023/03/03 04:26:29;;;;;;;;;29.75;28.75;;;;;;;;5041804;29;8785;-80
2023/03/03 04:29:02;;;;;;;;;50.25;46.50;;;;;;;;5034086;29;8828;-81
2023/03/03 04:31:35;;;;;;;;;36.25;33.75;;;;;;;;5059218;29;8919;-81
2023/03/03 04:34:10;;;;;;;;;40.25;39.25;;;;;;;;5040740;29;8810;-79
2023/03/03 04:36:44;;;;;;;;;57.75;51.00;;;;;;;;5025448;29;8872;-80
2023/03/03 04:39:16;;;;;;;;;65.75;55.50;;;;;;;;5021499;29;8859;-80
2023/03/03 04:41:49;;;;;;;;;45.50;45.00;;;;;;;;5029173;29;8884;-82
2023/03/03 04:44:22;;;;;;;;;46.00;43.00;;;;;;;;5025858;29;8829;-82
2023/03/03 04:47:23;;;;;;;;;35.25;32.50;;;;;;;;5100766;23;8892;-82
2023/03/03 04:49:56;;;;;;;;;28.00;28.00;;;;;;;;5037935;29;8825;-83
2023/03/03 04:52:28;;;;;;;;;31.00;31.00;;;;;;;;4993111;29;8836;-80
2023/03/03 04:55:01;;;;;;;;;49.00;46.00;;;;;;;;5035787;24;8862;-79
2023/03/03 04:57:34;;;;;;;;;53.75;47.75;;;;;;;;5061504;29;8849;-79
2023/03/03 05:00:08;;;;;;;;;53.25;48.00;;;;;;;;5047914;29;8805;-82
2023/03/03 05:02:40;;;;;;;;;44.00;44.00;;;;;;;;5039530;29;9566;-79
2023/03/03 05:05:13;;;;;;;;;40.00;40.00;;;;;;;;5027518;29;9621;-81
2023/03/03 05:07:46;;;;;;;;;35.00;35.00;;;;;;;;5060877;29;8913;-82
2023/03/03 05:10:18;;;;;;;;;32.75;30.25;;;;;;;;5048572;29;8898;-81
2023/03/03 05:15:33;;;;;;;;;36.75;36.00;;;;;;;;5421035;23;8884;-83
2023/03/03 05:18:05;;;;;;;;;31.20;31.20;;;;;;;;5066845;29;8848;-79
2023/03/03 05:20:36;;;;;;;;;24.00;22.00;;;;;;;;5084042;29;8805;-77
2023/03/03 05:23:07;;;;;;;;;32.00;29.50;;;;;;;;5081496;29;8996;-77
2023/03/03 05:25:56;;;;;;;;;51.00;48.00;;;;;;;;5069442;29;8844;-77
2023/03/03 05:28:27;;;;;;;;;69.67;57.00;;;;;;;;5050951;29;8814;-78
2023/03/03 05:30:58;;;;;;;;;74.33;60.67;;;;;;;;5066499;29;8806;-77
2023/03/03 05:33:30;;;;;;;;;51.50;48.00;;;;;;;;5066313;29;10252;-82
2023/03/03 05:36:01;;;;;;;;;39.67;38.67;;;;;;;;5065965;29;8836;-76
2023/03/03 05:38:32;;;;;;;;;43.00;40.00;;;;;;;;5064134;29;11678;-79
2023/03/03 05:41:04;;;;;;;;;82.00;66.00;;;;;;;;5067828;29;8806;-77
2023/03/03 05:43:35;;;;;;;;;40.20;35.20;;;;;;;;5052000;29;11784;-77
2023/03/03 05:46:06;;;;;;;;;30.50;30.50;;;;;;;;5084716;29;8942;-77
2023/03/03 05:48:37;;;;;;;;;27.00;24.75;;;;;;;;5099121;29;9576;-77
2023/03/03 05:51:08;;;;;;;;;35.60;35.60;;;;;;;;5083782;29;8806;-78
2023/03/03 05:53:39;;;;;;;;;39.50;38.25;;;;;;;;5085191;29;8835;-77
2023/03/03 05:56:10;;;;;;;;;40.20;39.20;;;;;;;;5067903;29;11664;-77
2023/03/03 05:58:41;;;;;;;;;36.50;34.50;;;;;;;;5068081;29;8869;-76
2023/03/03 06:01:12;;;;;;;;;24.75;22.50;;;;;;;;5052511;29;8809;-78
2023/03/03 06:03:43;;;;;;;;;53.80;48.20;;;;;;;;5067208;29;11641;-77
2023/03/03 06:06:15;;;;;;;;;49.80;46.60;;;;;;;;5068074;29;8785;-77
2023/03/03 06:08:46;;;;;;;;;38.00;38.00;;;;;;;;5052256;29;8870;-75
2023/03/03 06:11:18;;;;;;;;;36.00;36.00;;;;;;;;5067724;29;8814;-76
2023/03/03 06:14:08;;;;;;;;;34.40;34.40;;;;;;;;5086116;29;8796;-82
2023/03/03 06:16:40;;;;;;;;;45.80;44.20;;;;;;;;5045224;29;8888;-83
2023/03/03 06:19:13;;;;;;;;;43.40;41.20;;;;;;;;5039739;29;8895;-83
2023/03/03 06:21:49;;;;;;;;;40.00;35.40;;;;;;;;5040036;29;8872;-85
2023/03/03 06:24:24;;;;;;;;;28.00;28.00;;;;;;;;5092975;24;8846;-84
2023/03/03 06:26:57;;;;;;;;;26.60;26.00;;;;;;;;5052946;29;8855;-82
2023/03/03 06:29:30;;;;;;;;;42.40;41.20;;;;;;;;5034731;29;8820;-83
2023/03/03 06:32:02;;;;;;;;;37.40;36.40;;;;;;;;5052347;29;8816;-83
2023/03/03 06:34:54;;;;;;;;;36.40;36.40;;;;;;;;5052195;29;8938;-83
2023/03/03 06:37:30;;;;;;;;;35.80;35.20;;;;;;;;5052986;29;8810;-83
2023/03/03 06:40:03;;;;;;;;;37.60;34.60;;;;;;;;5083664;29;8827;-82
2023/03/03 06:42:37;;;;;;;;;46.20;38.80;;;;;;;;5054319;29;8833;-82
2023/03/03 06:45:09;;;;;;;;;59.60;52.00;;;;;;;;5087029;29;8794;-83
2023/03/03 06:47:42;;;;;;;;;41.60;38.00;;;;;;;;5053893;29;8849;-84
2023/03/03 06:50:18;;;;;;;;;54.80;50.40;;;;;;;;5100900;29;8896;-82
2023/03/03 06:52:51;;;;;;;;;58.20;51.00;;;;;;;;5088887;29;8813;-82
2023/03/03 06:55:23;;;;;;;;;48.60;42.20;;;;;;;;5070264;29;8904;-83
2023/03/03 06:58:16;;;;;;;;;41.40;37.60;;;;;;;;5093924;29;8824;-84
2023/03/03 07:00:51;;;;;;;;;43.20;39.00;;;;;;;;5072644;29;8789;-81
2023/03/03 07:03:32;;;;;;;;;40.60;21.40;;;;;;;;5066466;29;8832;-81
2023/03/03 07:06:25;;;;;;;;;51.20;44.20;;;;;;;;5083317;29;8830;-83
2023/03/03 07:08:57;;;;;;;;;41.60;39.40;;;;;;;;5051648;29;8856;-82
2023/03/03 07:11:49;;;;;;;;;38.80;35.80;;;;;;;;5082888;29;8936;-83
2023/03/03 07:14:21;;;;;;;;;5.60;5.60;;;;;;;;5067693;29;8801;-82
2023/03/03 07:16:59;;;;;;;;;21.20;21.20;;;;;;;;5060924;29;8846;-81
2023/03/03 07:19:33;;;;;;;;;40.40;38.00;;;;;;;;5058109;29;8798;-82
2023/03/03 07:22:15;;;;;;;;;44.40;39.80;;;;;;;;5083573;29;8938;-81
2023/03/03 07:24:50;;;;;;;;;61.00;51.60;;;;;;;;5069457;29;8868;-82
2023/03/03 07:27:29;;;;;;;;;62.80;52.00;;;;;;;;5084837;29;8809;-82
2023/03/03 07:30:10;;;;;;;;;40.40;40.00;;;;;;;;5056523;29;8836;-75
2023/03/03 07:32:42;;;;;;;;;44.40;38.20;;;;;;;;5070529;29;8944;-75
2023/03/03 07:35:40;;;;;;;;;24.80;24.80;;;;;;;;5069177;29;8829;-73
2023/03/03 07:38:31;;;;;;;;;44.80;43.40;;;;;;;;5077283;29;8921;-75
2023/03/03 07:41:04;;;;;;;;;28.40;28.20;;;;;;;;5069345;29;8828;-75
2023/03/03 07:43:38;;;;;;;;;41.60;39.80;;;;;;;;5059600;29;8941;-77
2023/03/03 07:46:09;;;;;;;;;35.80;35.80;;;;;;;;5053349;29;8849;-76
2023/03/03 07:48:41;;;;;;;;;39.75;39.75;;;;;;;;5068197;29;8833;-76
2023/03/03 07:51:18;;;;;;;;;85.00;69.25;;;;;;;;5083911;29;11591;-75
2023/03/03 07:53:51;;;;;;;;;44.80;43.80;;;;;;;;5083449;29;8898;-76
2023/03/03 07:56:27;;;;;;;;;35.80;35.00;;;;;;;;5068232;29;8836;-77
2023/03/03 07:58:58;;;;;;;;;47.20;45.00;;;;;;;;5081956;29;8829;-74
2023/03/03 08:01:43;;;;;;;;;30.60;30.60;;;;;;;;5069467;29;8848;-75
2023/03/03 08:04:14;;;;;;;;;42.40;39.80;;;;;;;;5065535;29;8844;-77
2023/03/03 08:06:55;;;;;;;;;47.80;42.20;;;;;;;;5050882;29;9592;-76
2023/03/03 08:09:34;;;;;;;;;51.80;47.80;;;;;;;;5063485;29;8876;-75
2023/03/03 08:12:05;;;;;;;;;65.20;54.20;;;;;;;;5069737;29;9629;-75
2023/03/03 08:14:37;;;;;;;;;49.50;46.00;;;;;;;;5086023;29;8833;-75
2023/03/03 08:17:22;;;;;;;;;49.80;46.40;;;;;;;;5054018;29;8854;-75
2023/03/03 08:19:53;;;;;;;;;37.60;37.00;;;;;;;;5086165;29;8825;-78
2023/03/03 08:22:34;;;;;;;;;34.20;32.60;;;;;;;;5069659;29;8845;-76
2023/03/03 08:25:06;;;;;;;;;45.80;39.80;;;;;;;;5069194;29;8842;-76
2023/03/03 08:27:36;;;;;;;;;40.80;38.20;;;;;;;;5069572;29;8885;-75
2023/03/03 08:30:08;;;;;;;;;28.50;28.50;;;;;;;;5054010;29;8936;-75
2023/03/03 08:32:39;;;;;;;;;25.60;22.80;;;;;;;;5053833;29;8825;-75
2023/03/03 08:35:28;;;;;;;;;30.20;29.20;;;;;;;;5056016;29;8806;-78
2023/03/03 08:37:59;;;;;;;;;28.60;26.60;;;;;;;;5069343;29;8825;-76
2023/03/03 08:40:31;;;;;;;;;28.80;24.40;;;;;;;;5069665;29;8821;-76
2023/03/03 08:43:01;;;;;;;;;21.40;20.20;;;;;;;;5084880;29;8840;-78
2023/03/03 08:45:33;;;;;;;;;32.00;30.25;;;;;;;;5084947;29;8802;-79
2023/03/03 08:48:04;;;;;;;;;37.60;36.80;;;;;;;;5084471;29;8821;-75
2023/03/03 08:50:35;;;;;;;;;39.00;38.40;;;;;;;;5068478;29;8802;-75
2023/03/03 08:53:07;;;;;;;;;61.40;51.80;;;;;;;;5038378;29;9211;-76
2023/03/03 08:55:38;;;;;;;;;43.80;42.40;;;;;;;;5069070;29;8849;-76
2023/03/03 08:58:09;;;;;;;;;33.00;33.00;;;;;;;;5085802;29;8948;-75
2023/03/03 09:00:40;;;;;;;;;30.80;30.00;;;;;;;;5085830;29;8926;-76
2023/03/03 09:03:11;;;;;;;;;24.60;24.60;;;;;;;;5085481;29;8912;-76
2023/03/03 09:05:43;;;;;;;;;25.25;23.75;;;;;;;;5085614;29;8830;-75
2023/03/03 09:08:14;;;;;;;;;21.40;21.40;;;;;;;;5085259;29;8825;-76
2023/03/03 09:10:45;;;;;;;;;24.75;24.75;;;;;;;;5068699;29;8821;-76
2023/03/03 09:13:17;;;;;;;;;42.75;41.25;;;;;;;;5084689;29;8820;-76
2023/03/03 09:15:49;;;;;;;;;34.00;32.20;;;;;;;;5085389;29;8826;-75
2023/03/03 09:18:36;;;;;;;;;29.00;29.00;;;;;;;;5083873;29;8830;-76
2023/03/03 09:21:24;;;;;;;;;26.20;25.00;;;;;;;;5049431;29;8820;-76
2023/03/03 09:23:56;;;;;;;;;30.60;27.40;;;;;;;;5064365;29;8853;-76
2023/03/03 09:26:28;;;;;;;;;24.80;21.00;;;;;;;;5066328;29;8822;-76
2023/03/03 09:29:15;;;;;;;;;55.20;48.00;;;;;;;;5033845;29;8779;-76
2023/03/03 09:32:00;;;;;;;;;31.40;30.60;;;;;;;;5072929;29;8808;-76
2023/03/03 09:34:37;;;;;;;;;29.60;29.60;;;;;;;;5070745;29;8829;-75
2023/03/03 09:37:31;;;;;;;;;28.00;28.00;;;;;;;;5086101;29;8825;-75
2023/03/03 09:40:21;;;;;;;;;14.00;13.00;;;;;;;;5087687;29;8811;-75
2023/03/03 09:43:03;;;;;;;;;23.20;23.20;;;;;;;;5072006;29;8838;-75
2023/03/03 09:46:20;;;;;;;;;26.20;23.20;;;;;;;;5105075;29;9540;-75
2023/03/03 09:48:56;;;;;;;;;37.60;36.40;;;;;;;;5065109;29;8815;-74
2023/03/03 09:51:42;;;;;;;;;26.40;26.00;;;;;;;;5065670;29;10185;-77
2023/03/03 09:54:38;;;;;;;;;36.80;33.40;;;;;;;;5050823;29;8822;-77
2023/03/03 09:57:13;;;;;;;;;34.40;31.40;;;;;;;;5066337;29;8922;-76
2023/03/03 09:59:44;;;;;;;;;35.20;35.20;;;;;;;;5083336;29;8800;-77
2023/03/03 10:02:34;;;;;;;;;36.20;32.80;;;;;;;;5067088;29;8839;-76
2023/03/03 10:05:05;;;;;;;;;31.00;30.50;;;;;;;;5085409;29;8901;-77
2023/03/03 10:07:42;;;;;;;;;38.00;35.25;;;;;;;;5102340;29;12018;-76
2023/03/03 10:10:26;;;;;;;;;37.00;35.00;;;;;;;;5047019;29;11516;-77
2023/03/03 10:13:15;;;;;;;;;48.60;45.20;;;;;;;;5046690;29;8834;-78
2023/03/03 10:15:45;;;;;;;;;35.00;35.00;;;;;;;;5063617;29;8872;-76
2023/03/03 10:18:23;;;;;;;;;31.50;30.50;;;;;;;;5047017;29;8829;-76
2023/03/03 10:20:54;;;;;;;;;25.80;25.00;;;;;;;;5046602;29;11535;-77
2023/03/03 10:23:34;;;;;;;;;31.75;31.25;;;;;;;;5054057;29;8847;-76
2023/03/03 10:26:23;;;;;;;;;27.60;22.20;;;;;;;;5091949;29;8885;-73
2023/03/03 10:29:03;;;;;;;;;25.80;25.80;;;;;;;;5080070;29;8799;-76
2023/03/03 10:31:34;;;;;;;;;25.20;25.20;;;;;;;;5090444;29;8895;-73
2023/03/03 10:34:23;;;;;;;;;23.00;22.80;;;;;;;;5088396;29;8795;-77
2023/03/03 10:36:59;;;;;;;;;22.75;22.00;;;;;;;;5089487;29;8776;-74
2023/03/03 10:39:39;;;;;;;;;72.40;60.60;;;;;;;;5072331;29;8788;-76
2023/03/03 10:42:28;;;;;;;;;20.60;20.60;;;;;;;;5072455;29;9550;-76
2023/03/03 10:45:17;;;;;;;;;24.80;24.80;;;;;;;;5089259;29;8822;-76
2023/03/03 10:48:02;;;;;;;;;14.00;14.00;;;;;;;;5105589;29;9542;-76
2023/03/03 10:50:43;;;;;;;;;41.60;39.20;;;;;;;;5058282;29;8820;-74
2023/03/03 10:53:20;;;;;;;;;21.00;19.80;;;;;;;;5091617;29;8846;-76
2023/03/03 10:56:24;;;;;;;;;20.60;16.80;;;;;;;;5091984;29;8830;-76
2023/03/03 10:59:30;;;;;;;;;27.00;24.40;;;;;;;;5108144;29;8800;-76
2023/03/03 11:02:05;;;;;;;;;34.60;33.40;;;;;;;;5088433;29;8832;-77
2023/03/03 11:04:43;;;;;;;;;46.20;42.80;;;;;;;;5088625;29;8804;-77
2023/03/03 11:07:45;;;;;;;;;19.20;18.60;;;;;;;;5076359;29;8906;-77
2023/03/03 11:10:32;;;;;;;;;52.40;46.80;;;;;;;;5090722;29;8791;-77
2023/03/03 11:13:10;;;;;;;;;47.80;45.00;;;;;;;;5073909;29;9547;-77
2023/03/03 11:16:34;;;;;;;;;48.80;44.60;;;;;;;;5073803;29;8788;-77
2023/03/03 11:19:10;;;;;;;;;34.20;34.00;;;;;;;;5003648;29;8830;-77
2023/03/03 11:22:20;;;;;;;;;22.00;22.00;;;;;;;;5062400;29;8882;-77
2023/03/03 11:24:56;;;;;;;;;13.00;13.00;;;;;;;;4981850;29;8956;-77
2023/03/03 11:27:27;;;;;;;;;21.40;20.60;;;;;;;;4976729;29;8833;-76
2023/03/03 11:30:16;;;;;;;;;21.25;21.25;;;;;;;;5060681;29;8890;-77
2023/03/03 11:33:03;;;;;;;;;26.80;26.20;;;;;;;;5077420;29;8888;-77
2023/03/03 11:35:37;;;;;;;;;28.40;25.40;;;;;;;;5107443;29;8784;-77
2023/03/03 11:38:17;;;;;;;;;19.00;18.40;;;;;;;;5107099;29;8839;-75
2023/03/03 11:40:51;;;;;;;;;35.20;34.20;;;;;;;;5105915;29;8823;-77
2023/03/03 11:43:35;;;;;;;;;23.40;23.40;;;;;;;;5086987;29;8828;-74
2023/03/03 11:46:26;;;;;;;;;31.80;31.60;;;;;;;;5063320;29;9639;-74
2023/03/03 11:49:03;;;;;;;;;23.80;20.40;;;;;;;;5073602;29;8819;-77
2023/03/03 11:51:46;;;;;;;;;16.00;16.00;;;;;;;;5070248;29;8792;-73
2023/03/03 11:54:31;;;;;;;;;17.80;17.80;;;;;;;;5070624;29;8860;-73
2023/03/03 11:57:08;;;;;;;;;57.80;47.00;;;;;;;;5087246;29;8779;-72
2023/03/03 11:59:53;;;;;;;;;36.60;34.20;;;;;;;;5085939;29;8784;-76
2023/03/03 12:02:44;;;;;;;;;25.00;24.80;;;;;;;;5070135;29;8895;-76
2023/03/03 12:05:34;;;;;;;;;14.00;14.00;;;;;;;;5070053;29;8840;-76
2023/03/03 12:08:05;;;;;;;;;11.40;11.40;;;;;;;;5070191;29;8784;-83
2023/03/03 12:11:03;;;;;;;;;16.00;13.80;;;;;;;;5074436;29;8788;-82
2023/03/03 12:14:00;;;;;;;;;21.40;20.60;;;;;;;;5065886;29;8829;-82
2023/03/03 12:16:43;;;;;;;;;18.20;17.20;;;;;;;;5037046;29;8808;-82
2023/03/03 12:19:14;;;;;;;;;33.80;33.20;;;;;;;;5051986;29;8802;-82
2023/03/03 12:21:46;;;;;;;;;16.80;16.80;;;;;;;;5036953;29;8997;-82
2023/03/03 12:24:35;;;;;;;;;15.80;15.80;;;;;;;;5047574;29;8839;-81
2023/03/03 12:27:13;;;;;;;;;18.20;18.20;;;;;;;;5083316;29;8919;-82
2023/03/03 12:30:02;;;;;;;;;9.20;9.20;;;;;;;;5056643;29;8799;-81
2023/03/03 12:32:46;;;;;;;;;29.20;25.60;;;;;;;;5055850;29;8788;-81
2023/03/03 12:35:39;;;;;;;;;25.20;24.60;;;;;;;;5055403;29;8818;-82
2023/03/03 12:38:16;;;;;;;;;34.80;34.20;;;;;;;;5055208;29;8800;-82
2023/03/03 12:41:08;;;;;;;;;35.40;35.00;;;;;;;;5070838;29;8800;-81
2023/03/03 12:43:50;;;;;;;;;27.40;26.80;;;;;;;;5048020;29;8893;-81
2023/03/03 12:46:39;;;;;;;;;23.80;23.40;;;;;;;;5036390;29;8781;-81
2023/03/03 12:49:10;;;;;;;;;22.60;21.00;;;;;;;;5031254;29;8807;-82
2023/03/03 12:51:47;;;;;;;;;18.20;18.20;;;;;;;;5039980;29;9520;-81
2023/03/03 12:54:36;;;;;;;;;22.40;22.40;;;;;;;;5056297;29;8808;-81
2023/03/03 12:57:13;;;;;;;;;30.00;29.80;;;;;;;;5071202;29;9578;-82
2023/03/03 12:59:50;;;;;;;;;22.00;20.20;;;;;;;;5054978;29;8800;-81
2023/03/03 13:02:30;;;;;;;;;12.00;12.00;;;;;;;;5058892;29;8844;-81
2023/03/03 13:05:12;;;;;;;;;16.60;15.60;;;;;;;;5090884;29;8835;-82
2023/03/03 13:07:46;;;;;;;;;27.60;27.60;;;;;;;;5087911;29;8814;-82
2023/03/03 13:10:25;;;;;;;;;23.20;22.80;;;;;;;;5089692;29;8803;-74
2023/03/03 13:13:30;;;;;;;;;29.80;28.20;;;;;;;;5105187;29;8824;-75
2023/03/03 13:16:13;;;;;;;;;42.60;40.40;;;;;;;;5105464;29;8785;-75
2023/03/03 13:18:54;;;;;;;;;23.00;21.80;;;;;;;;5103828;29;8823;-75
2023/03/03 13:21:25;;;;;;;;;82.20;62.00;;;;;;;;5083992;29;8914;-72
2023/03/03 13:23:59;;;;;;;;;32.25;25.75;;;;;;;;5083734;29;8800;-73
2023/03/03 13:26:39;;;;;;;;;27.40;26.20;;;;;;;;5088802;29;8826;-74
2023/03/03 13:29:31;;;;;;;;;21.60;21.40;;;;;;;;5084516;29;8784;-77
2023/03/03 13:32:15;;;;;;;;;25.60;24.80;;;;;;;;5067026;29;8819;-77
2023/03/03 13:35:07;;;;;;;;;25.80;25.80;;;;;;;;5053813;29;8815;-78
2023/03/03 13:37:42;;;;;;;;;30.80;30.80;;;;;;;;5037263;29;8863;-76
2023/03/03 13:40:13;;;;;;;;;25.40;24.80;;;;;;;;5064307;29;8921;-75
2023/03/03 13:42:50;;;;;;;;;21.20;21.00;;;;;;;;5095004;29;8828;-74
2023/03/03 13:45:28;;;;;;;;;21.80;21.80;;;;;;;;5087990;29;8780;-75
2023/03/03 13:48:17;;;;;;;;;35.60;35.60;;;;;;;;5102869;29;8784;-76
2023/03/03 13:50:52;;;;;;;;;24.00;23.75;;;;;;;;5104866;29;8818;-76
2023/03/03 13:53:29;;;;;;;;;18.40;18.40;;;;;;;;5104853;29;8788;-75
2023/03/03 13:56:00;;;;;;;;;24.20;24.00;;;;;;;;5104546;29;8863;-76
2023/03/03 13:58:43;;;;;;;;;32.00;32.00;;;;;;;;5097559;29;8937;-74
2023/03/03 14:01:27;;;;;;;;;29.80;28.40;;;;;;;;5058408;29;8884;-73
2023/03/03 14:04:04;;;;;;;;;28.20;27.80;;;;;;;;5067502;29;8828;-74
2023/03/03 14:06:34;;;;;;;;;23.00;21.20;;;;;;;;5084519;29;8788;-74
2023/03/03 14:09:42;;;;;;;;;21.60;19.80;;;;;;;;5084038;29;8807;-74
2023/03/03 14:12:29;;;;;;;;;26.00;26.00;;;;;;;;5083356;29;9497;-74
2023/03/03 14:15:23;;;;;;;;;29.00;28.20;;;;;;;;5066498;29;8815;-74
2023/03/03 14:17:58;;;;;;;;;35.20;34.60;;;;;;;;5071123;29;8818;-73
2023/03/03 14:20:50;;;;;;;;;25.00;23.40;;;;;;;;5064606;29;8790;-73
2023/03/03 14:23:36;;;;;;;;;50.60;44.40;;;;;;;;5045634;29;8940;-77
2023/03/03 14:26:09;;;;;;;;;30.60;30.60;;;;;;;;5068876;29;8827;-75
2023/03/03 14:28:44;;;;;;;;;21.00;18.00;;;;;;;;5071143;29;9546;-75
2023/03/03 14:31:25;;;;;;;;;30.40;28.60;;;;;;;;5087358;29;9522;-75
2023/03/03 14:34:15;;;;;;;;;38.00;35.60;;;;;;;;5091158;29;8883;-73
2023/03/03 14:36:46;;;;;;;;;36.00;33.75;;;;;;;;5092247;29;8819;-74
2023/03/03 14:39:25;;;;;;;;;37.25;32.25;;;;;;;;5085261;29;12190;-74
2023/03/03 14:41:58;;;;;;;;;46.40;40.00;;;;;;;;5099497;29;8819;-72
2023/03/03 14:44:34;;;;;;;;;47.60;40.00;;;;;;;;5082525;29;8819;-74
2023/03/03 14:47:08;;;;;;;;;31.00;31.00;;;;;;;;5065330;29;8883;-73
2023/03/03 14:49:39;;;;;;;;;29.60;27.80;;;;;;;;5049949;29;8804;-73
2023/03/03 14:52:18;;;;;;;;;31.20;29.40;;;;;;;;5081538;29;9559;-75
2023/03/03 14:54:59;;;;;;;;;24.20;19.40;;;;;;;;5045981;29;9576;-73
2023/03/03 14:57:45;;;;;;;;;36.80;35.40;;;;;;;;5046235;29;8805;-77
2023/03/03 15:00:18;;;;;;;;;43.80;37.40;;;;;;;;5090500;29;9398;-72
2023/03/03 15:02:58;;;;;;;;;27.00;25.60;;;;;;;;5064578;29;8827;-74
2023/03/03 15:05:30;;;;;;;;;25.60;25.60;;;;;;;;5050261;29;8795;-74
2023/03/03 15:08:04;;;;;;;;;25.00;22.80;;;;;;;;5065736;29;8946;-74
2023/03/03 15:10:37;;;;;;;;;25.40;25.00;;;;;;;;5065442;29;8795;-74
2023/03/03 15:13:20;;;;;;;;;32.40;27.00;;;;;;;;5090531;29;8906;-76
2023/03/03 15:16:11;;;;;;;;;23.20;22.40;;;;;;;;5104401;29;8812;-75
2023/03/03 15:19:00;;;;;;;;;14.60;14.60;;;;;;;;5081861;29;8800;-74
2023/03/03 15:21:33;;;;;;;;;30.40;27.60;;;;;;;;5083469;29;8812;-74
2023/03/03 15:24:07;;;;;;;;;28.00;27.00;;;;;;;;5068477;29;8974;-74
2023/03/03 15:27:04;;;;;;;;;22.80;19.80;;;;;;;;5066959;29;8803;-74
2023/03/03 15:29:41;;;;;;;;;112.67;76.67;;;;;;;;5079273;29;8847;-75
2023/03/03 15:32:26;;;;;;;;;30.60;30.00;;;;;;;;5087355;29;9443;-76
2023/03/03 15:35:02;;;;;;;;;24.60;24.60;;;;;;;;5097072;29;8787;-76